Main page
METAR-TAF:

METAR-TAF

Airports :

Mariehamn, Finland

Mariehamn Airport

latitude: 60-07N, longitude: 019-54E, elevation: 6 m

Current weather observation

The report was made 8 minutes ago, at 16:20 UTC
Wind 2 kt from the North
Temperature -9°C
Humidity 73%
Pressure 1031 hPa
Visibility 10 km or more
no clouds below 1500 m and no cumulonimbus

METAR: EFMA 231620Z 35002KT CAVOK M09/M13 Q1031

Time: 18:28 (16:28 UTC)

Forecast

The report was made 1 hour and 58 minutes ago, at 14:30 UTC
Forecast valid from 23 at 15 UTC to 23 at 24 UTC
Wind 7 kt from the Northeast
Visibility 10 km or more
Few clouds at a height of 2500 ft

TAF: EFMA 231430Z 2315/2324 05007KT 9999 FEW025

Weather observations and forecasts of more than 4000 airports (METAR and TAF reports).

The available stations are represented by yellow and red dots on the map.

Hover mouse over dot to see the name of the station.

Then click to see weather observations and forecasts.

To change the map : click on the green buttons with a black cross to zoom in, on the green button with a dash to zoom out, or on the green arrows for adjacent maps.


METAR-TAF: